KOZR/OZR METAR and TAF weather

Enter ICAO airport designator
Station Type Date Time Source
KOZR METAR 2022/06/27 18:15 UTC NOAA

KOZR 271815Z AUTO 00000KT 10SM FEW055 FEW150 SCT200 34/20 A3004 RMK AO2 PRESFR SLP171


Station Type Date Time Source
KOZR Decoded METAR 2022/06/27 18:15 UTC NOAA

Cairns Army Air Field / Ozark, AL, United States (KOZR) 31-17N 085-43W
Jun 27, 2022 - 02:15 PM EDT / 2022.06.27 1815 UTC
Wind: Calm:0
Visibility: 10 mile(s):0
Sky conditions: partly cloudy
Temperature: 93 F (34 C)
Heat index: 96.8 F (36.0 C):1
Dew Point: 68 F (20 C)
Relative Humidity: 43%
Pressure (altimeter): 30.04 in. Hg (1017 hPa)
Pressure tendency: falling rapidly
ob: KOZR 271815Z AUTO 00000KT 10SM FEW055 FEW150 SCT200 34/20 A3004 RMK AO2 PRESFR SLP171
cycle: 18

Station Type Date Time Source
KOZR TAF 2022/06/27 08:26 UTC NOAA

TAF KOZR 270800Z 2708/2814 36006KT 9999 SCT100 SCT250 QNH3000INS
TEMPO 2710/2713 4800 BR
BECMG 2713/2714 36008KT 9999 SCT040 QNH2997INS
BECMG 2722/2723 VRB06KT 9999 VCTS SCT045CB BKN250 QNH2994INS
BECMG 2800/2801 VRB06KT 9999 NSW SCT045 BKN250 QNH2995INS TX35/2721Z TN21/2711Z

Example: see airport list